createdAt,value
2018-12-01T00:02:18.250Z,100213.56
2018-12-01T00:04:47.046Z,100213.73
2018-12-01T00:07:16.378Z,100229.45
2018-12-01T00:09:45.142Z,100227.47
2018-12-01T00:12:14.034Z,100200.65
2018-12-01T00:14:43.776Z,100203.13
2018-12-01T00:17:12.871Z,100198.66
2018-12-01T00:19:42.554Z,100196.84
2018-12-01T00:22:11.402Z,100205.45
2018-12-01T00:24:40.793Z,100211.25
2018-12-01T00:27:10.091Z,100208.77
2018-12-01T00:29:39.777Z,100218.03
2018-12-01T00:32:09.184Z,100226.31
2018-12-01T00:34:37.993Z,100227.30
2018-12-01T00:37:10.394Z,100228.13
2018-12-01T00:39:39.256Z,100225.98
2018-12-01T00:42:08.073Z,100230.27
2018-12-01T00:44:37.540Z,100233.09
2018-12-01T00:47:06.598Z,100228.13
2018-12-01T00:49:35.332Z,100223.00
2018-12-01T00:52:04.618Z,100220.98
2018-12-01T00:54:33.406Z,100237.57
2018-12-01T00:57:02.192Z,100227.80
2018-12-01T00:59:31.980Z,100221.83
2018-12-01T01:02:01.448Z,100212.39
2018-12-01T01:04:30.248Z,100223.32
2018-12-01T01:06:59.441Z,100216.54
2018-12-01T01:09:28.287Z,100218.85
2018-12-01T01:11:57.084Z,100217.36
2018-12-01T01:14:25.881Z,100216.87
2018-12-01T01:16:55.773Z,100213.89
2018-12-01T01:19:25.457Z,100222.66
2018-12-01T01:21:54.603Z,100219.00
2018-12-01T01:24:24.217Z,100206.59
2018-12-01T01:26:53.099Z,100201.63
2018-12-01T01:29:22.992Z,100185.27
2018-12-01T01:31:51.959Z,100193.36
2018-12-01T01:34:20.770Z,100197.83
2018-12-01T01:36:49.645Z,100206.77
2018-12-01T01:39:18.361Z,100203.63
2018-12-01T01:41:47.261Z,100199.65
2018-12-01T01:44:16.619Z,100194.52
2018-12-01T01:46:45.398Z,100175.31
2018-12-01T01:49:14.273Z,100169.03
2018-12-01T01:51:43.833Z,100163.08
2018-12-01T01:54:13.600Z,100172.01
2018-12-01T01:56:42.425Z,100171.84
2018-12-01T01:59:11.245Z,100161.75
2018-12-01T02:01:40.732Z,100169.03
2018-12-01T02:04:09.516Z,100173.50
2018-12-01T02:06:38.842Z,100175.84
2018-12-01T02:09:08.485Z,100187.92
2018-12-01T02:11:37.288Z,100196.02
2018-12-01T02:14:06.193Z,100199.01
2018-12-01T02:16:35.088Z,100198.52
2018-12-01T02:19:05.827Z,100183.26
2018-12-01T02:21:34.654Z,100181.44
2018-12-01T02:24:04.108Z,100179.13
2018-12-01T02:26:32.872Z,100181.94
2018-12-01T02:29:02.276Z,100183.59
2018-12-01T02:31:31.041Z,100185.75
2018-12-01T02:33:59.782Z,100190.21
2018-12-01T02:36:28.854Z,100186.41
2018-12-01T02:38:57.656Z,100185.91
2018-12-01T02:41:27.537Z,100186.91
2018-12-01T02:44:08.611Z,100174.98
2018-12-01T02:47:09.260Z,100173.83
2018-12-01T02:49:38.140Z,100174.33
2018-12-01T02:52:07.831Z,100172.37
2018-12-01T02:54:36.670Z,100165.41
2018-12-01T02:57:05.484Z,100162.59
2018-12-01T02:59:34.836Z,100155.64
2018-12-01T03:02:04.208Z,100153.00
2018-12-01T03:04:32.990Z,100153.98
2018-12-01T03:07:02.411Z,100156.80
2018-12-01T03:09:31.480Z,100158.47
2018-12-01T03:12:00.261Z,100152.02
2018-12-01T03:14:29.079Z,100153.97
2018-12-01T03:16:57.852Z,100152.98
2018-12-01T03:19:27.481Z,100155.45
2018-12-01T03:21:56.198Z,100149.69
2018-12-01T03:24:25.522Z,100155.30
2018-12-01T03:26:54.652Z,100152.64
2018-12-01T03:29:24.129Z,100141.89
2018-12-01T03:31:53.123Z,100127.16
2018-12-01T03:34:22.681Z,100129.14
2018-12-01T03:36:51.502Z,100131.63
2018-12-01T03:39:20.452Z,100132.30
2018-12-01T03:41:50.288Z,100133.45
2018-12-01T03:44:22.655Z,100134.61
2018-12-01T03:46:51.458Z,100129.64
2018-12-01T03:49:20.260Z,100137.76
2018-12-01T03:51:50.182Z,100135.44
2018-12-01T03:54:20.128Z,100147.85
2018-12-01T03:56:48.868Z,100144.38
2018-12-01T03:59:18.420Z,100131.80
2018-12-01T04:01:47.981Z,100123.52
2018-12-01T04:04:16.760Z,100120.73
2018-12-01T04:06:46.155Z,100125.84
2018-12-01T04:09:20.454Z,100095.91
2018-12-01T04:11:49.242Z,100119.58
2018-12-01T04:14:18.063Z,100130.00
2018-12-01T04:16:46.964Z,100137.12
2018-12-01T04:19:15.756Z,100145.06
2018-12-01T04:21:44.598Z,100150.36
2018-12-01T04:24:13.894Z,100147.52
2018-12-01T04:26:43.482Z,100144.70
2018-12-01T04:29:13.204Z,100130.47
2018-12-01T04:31:41.936Z,100131.13
2018-12-01T04:34:10.808Z,100134.11
2018-12-01T04:36:39.880Z,100122.06
2018-12-01T04:39:09.139Z,100131.13
2018-12-01T04:41:38.868Z,100138.44
2018-12-01T04:44:09.088Z,100144.56
2018-12-01T04:46:37.849Z,100140.76
2018-12-01T04:49:06.797Z,100138.44
2018-12-01T04:51:36.329Z,100136.13
2018-12-01T04:54:05.282Z,100139.27
2018-12-01T04:56:34.159Z,100140.92
2018-12-01T04:59:02.912Z,100139.77
2018-12-01T05:01:33.698Z,100133.64
2018-12-01T05:04:02.433Z,100139.43
2018-12-01T05:06:31.980Z,100140.75
2018-12-01T05:09:00.733Z,100138.60
2018-12-01T05:11:29.833Z,100138.10
2018-12-01T05:13:58.668Z,100142.73
2018-12-01T05:16:27.463Z,100140.59
2018-12-01T05:18:56.345Z,100144.40
2018-12-01T05:21:26.339Z,100143.57
2018-12-01T05:23:56.376Z,100140.59
2018-12-01T05:26:26.200Z,100139.44
2018-12-01T05:28:56.004Z,100125.86
2018-12-01T05:31:26.233Z,100137.61
2018-12-01T05:33:55.524Z,100131.49
2018-12-01T05:36:24.770Z,100142.05
2018-12-01T05:38:54.313Z,100145.22
2018-12-01T05:41:27.943Z,100140.59
2018-12-01T05:43:57.501Z,100145.05
2018-12-01T05:46:26.280Z,100127.84
2018-12-01T05:48:55.268Z,100130.99
2018-12-01T05:51:24.777Z,100134.63
2018-12-01T05:53:54.278Z,100138.27
2018-12-01T05:56:23.843Z,100135.47
2018-12-01T05:58:52.839Z,100134.31
2018-12-01T06:01:22.892Z,100146.06
2018-12-01T06:03:51.856Z,100141.77
2018-12-01T06:06:21.502Z,100130.19
2018-12-01T06:08:50.232Z,100116.78
2018-12-01T06:11:19.032Z,100117.27
2018-12-01T06:13:47.840Z,100123.89
2018-12-01T06:16:16.596Z,100115.95
2018-12-01T06:18:45.479Z,100125.38
2018-12-01T06:21:14.716Z,100128.17
2018-12-01T06:24:47.745Z,100125.72
2018-12-01T06:27:16.569Z,100122.88
2018-12-01T06:29:45.913Z,100126.22
2018-12-01T06:32:15.828Z,100127.34
2018-12-01T06:34:44.708Z,100135.28
2018-12-01T06:37:13.643Z,100146.56
2018-12-01T06:39:42.634Z,100152.84
2018-12-01T06:42:12.494Z,100156.33
2018-12-01T06:44:42.752Z,100153.50
2018-12-01T06:47:11.624Z,100162.94
2018-12-01T06:49:40.431Z,100162.78
2018-12-01T06:52:09.930Z,100163.91
2018-12-01T06:54:38.717Z,100158.95
2018-12-01T06:57:07.499Z,100159.77
2018-12-01T06:59:36.317Z,100151.00
2018-12-01T07:02:06.156Z,100149.68
2018-12-01T07:04:34.942Z,100147.03
2018-12-01T07:07:04.650Z,100138.13
2018-12-01T07:09:33.494Z,100132.47
2018-12-01T07:12:02.293Z,100134.29
2018-12-01T07:14:31.089Z,100134.78
2018-12-01T07:16:59.846Z,100136.80
2018-12-01T07:19:28.752Z,100143.25
2018-12-01T07:21:57.549Z,100146.06
2018-12-01T07:24:27.788Z,100154.66
2018-12-01T07:26:56.612Z,100159.78
2018-12-01T07:29:26.389Z,100150.69
2018-12-01T07:31:55.411Z,100146.55
2018-12-01T07:34:24.573Z,100128.05
2018-12-01T07:36:53.464Z,100127.19
2018-12-01T07:39:22.465Z,100117.92
2018-12-01T07:41:53.616Z,100099.23
2018-12-01T07:44:23.634Z,100109.82
2018-12-01T07:46:52.502Z,100131.82
2018-12-01T07:49:21.336Z,100125.39
2018-12-01T07:51:50.762Z,100142.07
2018-12-01T07:54:19.587Z,100140.59
2018-12-01T07:56:48.340Z,100151.52
2018-12-01T07:59:17.212Z,100142.42
2018-12-01T08:01:46.905Z,100151.69
2018-12-01T08:04:15.739Z,100156.33
2018-12-01T08:06:45.067Z,100161.28
2018-12-01T08:09:14.341Z,100154.50
2018-12-01T08:11:43.408Z,100154.17
2018-12-01T08:14:13.320Z,100154.50
2018-12-01T08:16:42.334Z,100163.91
2018-12-01T08:19:11.201Z,100149.03
2018-12-01T08:21:40.200Z,100154.83
2018-12-01T08:24:09.649Z,100156.78
2018-12-01T08:26:38.986Z,100157.28
2018-12-01T08:29:08.434Z,100146.36
2018-12-01T08:31:37.184Z,100148.34
2018-12-01T08:34:06.017Z,100154.97
2018-12-01T08:36:34.862Z,100153.31
2018-12-01T08:39:03.966Z,100163.25
2018-12-01T08:41:33.538Z,100159.61
2018-12-01T08:44:03.086Z,100148.66
2018-12-01T08:46:31.889Z,100159.58
2018-12-01T08:49:00.848Z,100153.13
2018-12-01T08:51:30.193Z,100153.65
2018-12-01T08:53:58.987Z,100152.83
2018-12-01T08:56:27.804Z,100129.16
2018-12-01T08:58:56.640Z,100133.45
2018-12-01T09:01:27.268Z,100124.52
2018-12-01T09:03:56.086Z,100121.20
2018-12-01T09:06:26.333Z,100123.20
2018-12-01T09:08:55.220Z,100120.84
2018-12-01T09:11:29.864Z,100108.44
2018-12-01T09:13:59.387Z,100120.84
2018-12-01T09:16:28.330Z,100116.57
2018-12-01T09:18:57.168Z,100118.69
2018-12-01T09:21:26.545Z,100120.55
2018-12-01T09:23:56.407Z,100117.40
2018-12-01T09:26:26.753Z,100129.16
2018-12-01T09:28:56.817Z,100126.64
2018-12-01T09:31:25.992Z,100137.56
2018-12-01T09:33:54.808Z,100131.94
2018-12-01T09:36:23.889Z,100133.92
2018-12-01T09:38:52.822Z,100136.73
2018-12-01T09:41:22.915Z,100133.56
2018-12-01T09:43:52.423Z,100134.88
2018-12-01T09:46:21.259Z,100136.88
2018-12-01T09:48:50.045Z,100137.20
2018-12-01T09:51:19.560Z,100142.33
2018-12-01T09:53:48.343Z,100145.16
2018-12-01T09:56:17.135Z,100135.05
2018-12-01T09:58:46.149Z,100126.47
2018-12-01T10:01:16.719Z,100138.36
2018-12-01T10:03:45.700Z,100140.68
2018-12-01T10:06:15.312Z,100141.17
2018-12-01T10:08:44.303Z,100133.73
2018-12-01T10:11:13.300Z,100136.54
2018-12-01T10:13:42.179Z,100125.95
2018-12-01T10:16:11.133Z,100131.91
2018-12-01T10:18:40.004Z,100129.92
2018-12-01T10:21:08.800Z,100137.70
2018-12-01T10:23:38.514Z,100131.91
2018-12-01T10:26:07.944Z,100130.25
2018-12-01T10:28:36.959Z,100137.70
2018-12-01T10:31:06.539Z,100138.36
2018-12-01T10:33:35.325Z,100122.80
2018-12-01T10:36:04.198Z,100133.19
2018-12-01T10:38:33.021Z,100139.98
2018-12-01T10:41:02.560Z,100116.62
2018-12-01T10:43:32.204Z,100122.91
2018-12-01T10:46:00.949Z,100106.69
2018-12-01T10:48:29.766Z,100099.73
2018-12-01T10:50:59.444Z,100102.83
2018-12-01T10:53:28.279Z,100098.84
2018-12-01T10:55:58.010Z,100094.53
2018-12-01T10:58:26.832Z,100088.91
2018-12-01T11:01:02.887Z,100079.14
2018-12-01T11:03:36.724Z,100078.66
2018-12-01T11:06:09.099Z,100081.17
2018-12-01T11:08:38.090Z,100062.13
2018-12-01T11:11:06.983Z,100065.28
2018-12-01T11:13:35.812Z,100067.72
2018-12-01T11:16:05.176Z,100075.83
2018-12-01T11:18:34.002Z,100070.14
2018-12-01T11:21:02.810Z,100074.10
2018-12-01T11:23:32.337Z,100079.92
2018-12-01T11:26:01.783Z,100069.52
2018-12-01T11:28:30.651Z,100065.71
2018-12-01T11:31:00.014Z,100070.30
2018-12-01T11:33:28.881Z,100081.73
2018-12-01T11:35:57.724Z,100079.08
2018-12-01T11:38:26.520Z,100076.74
2018-12-01T11:40:55.676Z,100071.27
2018-12-01T11:43:27.757Z,100076.69
2018-12-01T11:45:57.353Z,100079.17
2018-12-01T11:48:28.708Z,100074.20
2018-12-01T11:50:58.599Z,100083.30
2018-12-01T11:53:27.365Z,100098.55
2018-12-01T11:55:57.235Z,100097.22
2018-12-01T11:58:27.182Z,100082.64
2018-12-01T12:00:56.938Z,100091.37
2018-12-01T12:03:29.128Z,100092.19
2018-12-01T12:05:58.993Z,100088.89
2018-12-01T12:08:28.085Z,100078.27
2018-12-01T12:10:56.953Z,100079.92
2018-12-01T12:13:27.744Z,100085.05
2018-12-01T12:15:56.765Z,100084.56
2018-12-01T12:18:26.129Z,100083.73
2018-12-01T12:20:55.156Z,100087.55
2018-12-01T12:23:25.226Z,100090.02
2018-12-01T12:25:55.490Z,100079.08
2018-12-01T12:28:24.969Z,100081.16
2018-12-01T12:30:55.181Z,100081.47
2018-12-01T12:33:25.054Z,100075.32
2018-12-01T12:35:54.056Z,100081.75
2018-12-01T12:38:23.837Z,100082.73
2018-12-01T12:40:53.144Z,100073.94
2018-12-01T12:43:24.937Z,100079.92
2018-12-01T12:45:55.055Z,100076.11
2018-12-01T12:48:24.977Z,100085.73
2018-12-01T12:50:54.994Z,100076.09
2018-12-01T12:53:24.674Z,100082.05
2018-12-01T12:55:53.947Z,100091.52
2018-12-01T12:58:22.993Z,100081.73
2018-12-01T13:00:52.081Z,100080.08
2018-12-01T13:03:21.640Z,100082.08
2018-12-01T13:05:51.354Z,100068.23
2018-12-01T13:08:20.647Z,100068.73
2018-12-01T13:10:49.444Z,100076.19
2018-12-01T13:13:18.236Z,100079.85
2018-12-01T13:15:47.329Z,100082.55
2018-12-01T13:18:16.260Z,100086.72
2018-12-01T13:20:46.462Z,100079.83
2018-12-01T13:23:15.983Z,100073.88
2018-12-01T13:25:45.550Z,100075.70
2018-12-01T13:28:16.931Z,100072.77
2018-12-01T13:30:49.897Z,100067.48
2018-12-01T13:33:18.710Z,100068.63
2018-12-01T13:35:47.614Z,100069.13
2018-12-01T13:38:16.468Z,100079.25
2018-12-01T13:40:47.136Z,100067.66
2018-12-01T13:43:16.663Z,100057.59
2018-12-01T13:45:46.254Z,100071.34
2018-12-01T13:48:15.181Z,100068.69
2018-12-01T13:50:44.645Z,100060.58
2018-12-01T13:53:14.496Z,100068.53
2018-12-01T13:55:43.457Z,100068.53
2018-12-01T13:58:12.503Z,100069.87
2018-12-01T14:00:41.741Z,100066.55
2018-12-01T14:03:11.722Z,100065.56
2018-12-01T14:05:42.174Z,100073.52
2018-12-01T14:08:11.048Z,100064.56
2018-12-01T14:10:41.384Z,100079.31
2018-12-01T14:13:12.047Z,100070.05
2018-12-01T14:15:40.964Z,100067.11
2018-12-01T14:18:09.848Z,100059.00
2018-12-01T14:20:38.690Z,100056.69
2018-12-01T14:23:08.538Z,100062.64
2018-12-01T14:25:38.058Z,100068.77
2018-12-01T14:28:08.627Z,100070.97
2018-12-01T14:30:38.066Z,100073.12
2018-12-01T14:33:07.546Z,100071.30
2018-12-01T14:35:37.438Z,100067.95
2018-12-01T14:38:22.896Z,100070.14
2018-12-01T14:40:51.760Z,100063.68
2018-12-01T14:43:21.369Z,100068.81
2018-12-01T14:45:51.160Z,100069.16
2018-12-01T14:48:19.957Z,100076.94
2018-12-01T14:50:49.404Z,100094.81
2018-12-01T14:53:19.154Z,100094.66
2018-12-01T14:55:48.062Z,100092.33
2018-12-01T14:58:16.945Z,100093.83
2018-12-01T15:00:45.828Z,100086.70
2018-12-01T15:03:16.187Z,100082.23
2018-12-01T15:05:45.620Z,100071.02
2018-12-01T15:08:14.485Z,100072.80
2018-12-01T15:10:47.546Z,100076.60
2018-12-01T15:13:16.381Z,100078.92
2018-12-01T15:15:45.506Z,100073.61
2018-12-01T15:18:14.527Z,100070.10
2018-12-01T15:20:43.497Z,100074.23
2018-12-01T15:23:13.648Z,100074.67
2018-12-01T15:25:43.168Z,100075.99
2018-12-01T15:28:11.984Z,100075.83
2018-12-01T15:30:41.593Z,100068.21
2018-12-01T15:33:13.403Z,100059.09
2018-12-01T15:35:42.985Z,100056.10
2018-12-01T15:38:11.737Z,100047.83
2018-12-01T15:40:44.040Z,100054.61
2018-12-01T15:43:13.957Z,100044.67
2018-12-01T15:45:44.665Z,100047.33
2018-12-01T15:48:13.582Z,100039.23
2018-12-01T15:50:43.555Z,100036.58
2018-12-01T15:53:13.613Z,100035.58
2018-12-01T15:55:43.180Z,100045.89
2018-12-01T15:58:11.420Z,100056.00
2018-12-01T16:00:40.910Z,100057.16
2018-12-01T16:03:10.363Z,100047.41
2018-12-01T16:05:40.010Z,100061.80
2018-12-01T16:08:09.812Z,100059.97
2018-12-01T16:10:38.567Z,100064.41
2018-12-01T16:13:09.860Z,100063.08
2018-12-01T16:15:41.545Z,100056.12
2018-12-01T16:18:10.872Z,100066.73
2018-12-01T16:20:39.811Z,100057.98
2018-12-01T16:23:09.720Z,100054.02
2018-12-01T16:25:39.489Z,100054.14
2018-12-01T16:28:09.430Z,100048.89
2018-12-01T16:30:41.487Z,100049.38
2018-12-01T16:33:14.991Z,100051.20
2018-12-01T16:35:43.928Z,100039.89
2018-12-01T16:38:14.030Z,100033.10
2018-12-01T16:40:49.526Z,100026.31
2018-12-01T16:43:19.230Z,100027.97
2018-12-01T16:45:50.018Z,100021.84
2018-12-01T16:48:19.245Z,100019.89
2018-12-01T16:50:48.692Z,100016.43
2018-12-01T16:53:18.616Z,100019.92
2018-12-01T16:55:47.503Z,100017.81
2018-12-01T16:58:17.115Z,100015.28
2018-12-01T17:00:46.133Z,100013.01
2018-12-01T17:03:15.919Z,100026.09
2018-12-01T17:05:51.286Z,100026.92
2018-12-01T17:08:20.631Z,100022.79
2018-12-01T17:10:49.450Z,100023.91
2018-12-01T17:13:18.351Z,100017.61
2018-12-01T17:15:47.253Z,100019.76
2018-12-01T17:18:16.250Z,100014.50
2018-12-01T17:20:45.209Z,100018.42
2018-12-01T17:23:17.147Z,100013.61
2018-12-01T17:25:47.314Z,100013.61
2018-12-01T17:28:17.654Z,100008.97
2018-12-01T17:30:47.181Z,100010.62
2018-12-01T17:33:17.173Z,100008.97
2018-12-01T17:35:46.177Z,100012.45
2018-12-01T17:38:16.470Z,100010.46
2018-12-01T17:40:58.220Z,99999.20
2018-12-01T17:43:44.909Z,100000.36
2018-12-01T17:46:14.501Z,100001.36
2018-12-01T17:48:43.420Z,99997.88
2018-12-01T17:51:12.930Z,99998.00
2018-12-01T17:53:43.949Z,99992.02
2018-12-01T17:56:11.947Z,99988.88
2018-12-01T17:58:40.969Z,99991.84
2018-12-01T18:01:11.462Z,99986.36
2018-12-01T18:03:40.698Z,99990.67
2018-12-01T18:06:12.338Z,99984.37
2018-12-01T18:08:41.509Z,99985.54
2018-12-01T18:11:11.547Z,99984.37
2018-12-01T18:13:40.822Z,99982.72
2018-12-01T18:16:10.064Z,99982.99
2018-12-01T18:18:39.250Z,99983.48
2018-12-01T18:21:08.377Z,99980.00
2018-12-01T18:23:38.478Z,99982.50
2018-12-01T18:26:09.337Z,99989.95
2018-12-01T18:28:50.943Z,99979.17
2018-12-01T18:31:24.561Z,99979.83
2018-12-01T18:33:56.574Z,99980.66
2018-12-01T18:36:26.972Z,99977.35
2018-12-01T18:38:56.883Z,99967.75
2018-12-01T18:41:26.987Z,99973.18
2018-12-01T18:43:57.222Z,99976.16
2018-12-01T18:46:26.522Z,99973.30
2018-12-01T18:48:55.829Z,99971.36
2018-12-01T18:51:25.978Z,99968.20
2018-12-01T18:53:55.405Z,99961.09
2018-12-01T18:56:25.437Z,99965.05
2018-12-01T18:58:54.673Z,99965.34
2018-12-01T19:01:25.291Z,99955.80
2018-12-01T19:03:54.494Z,99961.85
2018-12-01T19:06:25.791Z,99967.81
2018-12-01T19:08:55.225Z,99965.67
2018-12-01T19:11:24.645Z,99967.38
2018-12-01T19:13:53.945Z,99962.58
2018-12-01T19:16:23.077Z,99962.08
2018-12-01T19:18:52.422Z,99965.23
2018-12-01T19:21:21.658Z,99957.30
2018-12-01T19:23:51.825Z,99953.64
2018-12-01T19:26:21.997Z,99945.39
2018-12-01T19:28:52.785Z,99946.54
2018-12-01T19:31:21.962Z,99946.71
2018-12-01T19:33:51.159Z,99950.69
2018-12-01T19:36:20.332Z,99944.89
2018-12-01T19:38:49.513Z,99946.44
2018-12-01T19:41:19.926Z,99954.22
2018-12-01T19:43:49.969Z,99952.23
2018-12-01T19:46:19.165Z,99946.78
2018-12-01T19:48:50.163Z,99947.78
2018-12-01T19:51:24.231Z,99945.97
2018-12-01T19:53:53.521Z,99941.50
2018-12-01T19:56:23.740Z,99942.17
2018-12-01T19:58:52.989Z,99935.42
2018-12-01T20:01:23.572Z,99932.77
2018-12-01T20:03:52.923Z,99928.58
2018-12-01T20:06:22.858Z,99931.55
2018-12-01T20:08:52.061Z,99929.55
2018-12-01T20:11:21.792Z,99933.03
2018-12-01T20:13:51.561Z,99922.77
2018-12-01T20:16:37.440Z,99922.77
2018-12-01T20:19:07.460Z,99928.25
2018-12-01T20:21:36.619Z,99922.77
2018-12-01T20:24:08.954Z,99918.30
2018-12-01T20:26:39.872Z,99914.72
2018-12-01T20:29:09.761Z,99919.30
2018-12-01T20:31:38.906Z,99923.10
2018-12-01T20:34:08.395Z,99921.93
2018-12-01T20:36:40.376Z,99914.48
2018-12-01T20:39:21.481Z,99915.13
2018-12-01T20:41:51.493Z,99915.63
2018-12-01T20:44:21.407Z,99908.18
2018-12-01T20:46:50.560Z,99915.30
2018-12-01T20:49:19.881Z,99915.45
2018-12-01T20:51:49.999Z,99914.95
2018-12-01T20:54:37.665Z,99904.55
2018-12-01T20:57:17.847Z,99912.60
2018-12-01T20:59:47.128Z,99917.41
2018-12-01T21:02:17.398Z,99915.41
2018-12-01T21:04:46.620Z,99915.73
2018-12-01T21:07:16.685Z,99918.20
2018-12-01T21:09:47.950Z,99910.43
2018-12-01T21:12:17.568Z,99913.08
2018-12-01T21:14:46.770Z,99910.93
2018-12-01T21:17:16.080Z,99907.63
2018-12-01T21:19:45.517Z,99909.11
2018-12-01T21:22:14.846Z,99896.91
2018-12-01T21:24:45.834Z,99906.30
2018-12-01T21:27:15.145Z,99909.28
2018-12-01T21:29:45.129Z,99904.63
2018-12-01T21:32:14.341Z,99899.65
2018-12-01T21:34:43.460Z,99908.08
2018-12-01T21:37:12.627Z,99910.23
2018-12-01T21:39:41.717Z,99908.58
2018-12-01T21:42:12.177Z,99899.33
2018-12-01T21:44:41.985Z,99908.55
2018-12-01T21:47:11.108Z,99906.73
2018-12-01T21:49:40.237Z,99902.43
2018-12-01T21:52:10.191Z,99905.11
2018-12-01T21:54:39.387Z,99897.65
2018-12-01T21:57:08.496Z,99900.30
2018-12-01T21:59:37.655Z,99895.91
2018-12-01T22:02:08.694Z,99908.28
2018-12-01T22:04:37.814Z,99907.13
2018-12-01T22:07:07.500Z,99901.50
2018-12-01T22:09:36.510Z,99901.70
2018-12-01T22:12:05.765Z,99897.08
2018-12-01T22:14:34.569Z,99889.30
2018-12-01T22:17:03.378Z,99896.25
2018-12-01T22:19:32.341Z,99889.63
2018-12-01T22:22:01.373Z,99892.45
2018-12-01T22:24:31.101Z,99884.83
2018-12-01T22:26:59.866Z,99875.58
2018-12-01T22:29:29.365Z,99865.82
2018-12-01T22:31:58.256Z,99878.85
2018-12-01T22:34:27.986Z,99880.00
2018-12-01T22:36:56.861Z,99876.02
2018-12-01T22:39:26.236Z,99882.27
2018-12-01T22:41:56.022Z,99880.45
2018-12-01T22:44:27.779Z,99875.64
2018-12-01T22:46:56.773Z,99880.59
2018-12-01T22:49:25.625Z,99864.89
2018-12-01T22:51:55.489Z,99868.31
2018-12-01T22:54:24.865Z,99872.30
2018-12-01T22:56:53.636Z,99866.99
2018-12-01T22:59:22.422Z,99864.66
2018-12-01T23:01:52.169Z,99864.84
2018-12-01T23:04:21.319Z,99860.87
2018-12-01T23:06:50.808Z,99861.02
2018-12-01T23:09:19.671Z,99861.52
2018-12-01T23:11:48.460Z,99861.13
2018-12-01T23:14:17.304Z,99854.15
2018-12-01T23:16:46.191Z,99852.33
2018-12-01T23:19:15.389Z,99855.30
2018-12-01T23:21:44.553Z,99858.10
2018-12-01T23:24:14.008Z,99861.73
2018-12-01T23:26:43.590Z,99862.55
2018-12-01T23:29:13.156Z,99853.59
2018-12-01T23:31:41.979Z,99847.29
2018-12-01T23:34:10.824Z,99843.16
2018-12-01T23:36:40.390Z,99843.84
2018-12-01T23:39:09.181Z,99839.22
2018-12-01T23:41:38.753Z,99837.92
2018-12-01T23:44:10.649Z,99832.03
2018-12-01T23:46:39.472Z,99832.06
2018-12-01T23:49:08.260Z,99835.86
2018-12-01T23:51:37.926Z,99835.71
2018-12-01T23:54:06.879Z,99838.92
2018-12-01T23:56:35.641Z,99843.07
2018-12-01T23:59:04.505Z,99839.13
